Accueil
METAR-TAF:

METAR-TAF

Aéroports :

Aéroport d'Antioche

Antioche, Turquie

latitude: 36-21-46N, longitude: 36-16-56E, altitude: 1950 m

Observation

Le bulletin a été fait il y a 54 minutes, à 20:50 UTC
Vent 7 kt de nord-est
Température 7°C
Humidité 76%
Pression 1025 hPa
Visibilité 10 km ou plus
Quelques nuages à une hauteur de 4000 ft
Nuages épars à une hauteur de 10000 ft

METAR: LTDA 202050Z 05007KT 9999 FEW040 SCT100 07/03 Q1025 NOSIG

Heure: 00:44 (21:44 UTC)

Prévision

Le bulletin a été fait il y a 2 heures et 4 minutes, à 19:40 UTC
Prévision valable du 20 à 21 UTC au 21 à 06 UTC
Vent 2 kt de direction variable
Visibilité: 7000 m
Quelques nuages à une hauteur de 4000 ft
Nuages épars à une hauteur de 10000 ft

TAF: LTDA 201940Z 2021/2106 VRB02KT 7000 FEW040 SCT100

Observations et prévisions météorologiques de plus de 4000 aéroports (messages METAR et TAF).

Les stations disponibles sont représentées par des disques jaunes et rouges sur la carte.

Passer la souris dessus pour voir le nom de la station.

Cliquer dessus pour voir les observations et prévisions météorologiques.

Pour changer de carte: cliquez sur les boutons verts avec une croix noire pour zoomer, sur le bouton vert avec un tiret pour effectuer un zoom arrière, ou sur les flèches vertes pour les cartes adjacentes.


METAR-TAF: